PRIVATE WETTERSTATION BILLIGHEIM-ALLFELD                       ZURCK
Wetterdaten: Freitag, 21.07.2017
Datum Zeit Temp. A. Temp. A. min Temp. A. max Feuchte A. Luftdruck Regen Wind Richtung Richtung Sonnenschein ET Solar Taupunkt Windchill Windben Empfang
21.07.2017 00:00 17,7 C 17,7 C 17,7 C 89 % 1012,5 hPa 0,0 l/m 0,0 km/h (0 Bft) N 0 0 min 0,000 mm 0 W/m 15,9 C 17,7 C 0,0 km/h (0 Bft) 100 %
21.07.2017 00:10 17,6 C 17,6 C 17,7 C 89 % 1012,5 hPa 0,0 l/m 0,0 km/h (0 Bft) N 0 0 min 0,000 mm 0 W/m 15,8 C 17,6 C 0,0 km/h (0 Bft) 100 %
21.07.2017 00:20 17,6 C 17,6 C 17,7 C 89 % 1012,6 hPa 0,0 l/m 3,2 km/h (1 Bft) S-SO 157 0 min 0,000 mm 0 W/m 15,8 C 17,6 C 6,4 km/h (2 Bft) 100 %
21.07.2017 00:30 17,6 C 17,6 C 17,6 C 89 % 1012,5 hPa 0,0 l/m 1,6 km/h (1 Bft) S-SO 157 0 min 0,000 mm 0 W/m 15,8 C 17,6 C 6,4 km/h (2 Bft) 100 %
21.07.2017 00:40 17,5 C 17,5 C 17,6 C 89 % 1012,6 hPa 0,0 l/m 0,0 km/h (0 Bft) N 0 0 min 0,000 mm 0 W/m 15,7 C 17,5 C 0,0 km/h (0 Bft) 100 %
21.07.2017 00:50 17,4 C 17,4 C 17,5 C 89 % 1012,8 hPa 0,0 l/m 0,0 km/h (0 Bft) S-SO 157 0 min 0,000 mm 0 W/m 15,6 C 17,4 C 1,6 km/h (1 Bft) 100 %
21.07.2017 01:00 17,3 C 17,3 C 17,4 C 89 % 1012,8 hPa 0,0 l/m 0,0 km/h (0 Bft) S-SO 157 0 min 0,000 mm 0 W/m 15,5 C 17,3 C 1,6 km/h (1 Bft) 100 %
21.07.2017 01:10 17,3 C 17,3 C 17,3 C 89 % 1012,9 hPa 0,0 l/m 0,0 km/h (0 Bft) S-SO 157 0 min 0,000 mm 0 W/m 15,5 C 17,3 C 1,6 km/h (1 Bft) 100 %
21.07.2017 01:20 17,2 C 17,2 C 17,3 C 89 % 1013,0 hPa 0,0 l/m 0,0 km/h (0 Bft) N 0 0 min 0,000 mm 0 W/m 15,4 C 17,2 C 0,0 km/h (0 Bft) 100 %
21.07.2017 01:30 17,2 C 17,2 C 17,2 C 89 % 1013,0 hPa 0,0 l/m 0,0 km/h (0 Bft) S-SO 157 0 min 0,000 mm 0 W/m 15,4 C 17,2 C 1,6 km/h (1 Bft) 100 %
21.07.2017 01:40 17,1 C 17,1 C 17,2 C 89 % 1012,9 hPa 0,0 l/m 0,0 km/h (0 Bft) N 0 0 min 0,000 mm 0 W/m 15,3 C 17,1 C 0,0 km/h (0 Bft) 100 %
21.07.2017 01:50 16,9 C 16,9 C 17,1 C 89 % 1013,0 hPa 0,0 l/m 0,0 km/h (0 Bft) N 0 0 min 0,000 mm 0 W/m 15,1 C 16,9 C 0,0 km/h (0 Bft) 100 %
21.07.2017 02:00 16,9 C 16,9 C 16,9 C 89 % 1013,0 hPa 0,0 l/m 0,0 km/h (0 Bft) N 0 0 min 0,000 mm 0 W/m 15,1 C 16,9 C 0,0 km/h (0 Bft) 100 %
21.07.2017 02:10 16,8 C 16,8 C 16,9 C 89 % 1012,9 hPa 0,0 l/m 0,0 km/h (0 Bft) N 0 0 min 0,000 mm 0 W/m 15,0 C 16,8 C 0,0 km/h (0 Bft) 100 %
21.07.2017 02:20 16,8 C 16,8 C 16,8 C 89 % 1013,1 hPa 0,0 l/m 0,0 km/h (0 Bft) S-SO 157 0 min 0,000 mm 0 W/m 15,0 C 16,8 C 3,2 km/h (1 Bft) 100 %
21.07.2017 02:30 16,8 C 16,8 C 16,8 C 89 % 1013,2 hPa 0,0 l/m 0,0 km/h (0 Bft) S-SO 157 0 min 0,000 mm 0 W/m 15,0 C 16,8 C 1,6 km/h (1 Bft) 100 %
21.07.2017 02:40 16,8 C 16,8 C 16,8 C 89 % 1013,2 hPa 0,0 l/m 0,0 km/h (0 Bft) S-SO 157 0 min 0,000 mm 0 W/m 15,0 C 16,8 C 1,6 km/h (1 Bft) 100 %
21.07.2017 02:50 16,7 C 16,7 C 16,8 C 89 % 1013,2 hPa 0,0 l/m 0,0 km/h (0 Bft) N 0 0 min 0,000 mm 0 W/m 14,9 C 16,7 C 0,0 km/h (0 Bft) 100 %
21.07.2017 03:00 16,7 C 16,7 C 16,7 C 89 % 1013,2 hPa 0,0 l/m 0,0 km/h (0 Bft) N 0 0 min 0,000 mm 0 W/m 14,9 C 16,7 C 0,0 km/h (0 Bft) 100 %
21.07.2017 03:10 16,5 C 16,5 C 16,7 C 89 % 1013,2 hPa 0,0 l/m 0,0 km/h (0 Bft) N 0 0 min 0,000 mm 0 W/m 14,7 C 16,5 C 0,0 km/h (0 Bft) 100 %
21.07.2017 03:20 16,4 C 16,4 C 16,5 C 89 % 1013,1 hPa 0,0 l/m 0,0 km/h (0 Bft) S-SO 157 0 min 0,000 mm 0 W/m 14,6 C 16,4 C 3,2 km/h (1 Bft) 99 %
21.07.2017 03:30 16,2 C 16,2 C 16,4 C 89 % 1013,1 hPa 0,0 l/m 0,0 km/h (0 Bft) N 0 0 min 0,000 mm 0 W/m 14,4 C 16,2 C 0,0 km/h (0 Bft) 99 %
21.07.2017 03:40 15,9 C 15,9 C 16,2 C 89 % 1013,1 hPa 0,0 l/m 0,0 km/h (0 Bft) S-SO 157 0 min 0,000 mm 0 W/m 14,1 C 15,9 C 1,6 km/h (1 Bft) 100 %
21.07.2017 03:50 16,2 C 15,9 C 16,2 C 89 % 1013,1 hPa 0,0 l/m 0,0 km/h (0 Bft) S-SO 157 0 min 0,000 mm 0 W/m 14,4 C 16,2 C 1,6 km/h (1 Bft) 100 %
21.07.2017 04:00 15,8 C 15,8 C 16,2 C 89 % 1013,1 hPa 0,0 l/m 0,0 km/h (0 Bft) N 0 0 min 0,000 mm 0 W/m 14,0 C 15,8 C 0,0 km/h (0 Bft) 100 %
21.07.2017 04:10 15,7 C 15,7 C 15,9 C 89 % 1013,1 hPa 0,0 l/m 0,0 km/h (0 Bft) N 0 0 min 0,000 mm 0 W/m 13,9 C 15,7 C 0,0 km/h (0 Bft) 100 %
21.07.2017 04:20 15,5 C 15,5 C 15,7 C 89 % 1013,1 hPa 0,0 l/m 0,0 km/h (0 Bft) N 0 0 min 0,000 mm 0 W/m 13,7 C 15,5 C 0,0 km/h (0 Bft) 100 %
21.07.2017 04:30 15,3 C 15,3 C 15,5 C 89 % 1013,1 hPa 0,0 l/m 0,0 km/h (0 Bft) N 0 0 min 0,000 mm 0 W/m 13,5 C 15,3 C 0,0 km/h (0 Bft) 100 %
21.07.2017 04:40 15,2 C 15,2 C 15,3 C 89 % 1013,1 hPa 0,0 l/m 0,0 km/h (0 Bft) N 0 0 min 0,000 mm 0 W/m 13,4 C 15,2 C 0,0 km/h (0 Bft) 100 %
21.07.2017 04:50 15,1 C 15,1 C 15,2 C 89 % 1013,2 hPa 0,0 l/m 0,0 km/h (0 Bft) N 0 0 min 0,000 mm 0 W/m 13,3 C 15,1 C 0,0 km/h (0 Bft) 100 %
21.07.2017 05:00 15,1 C 15,1 C 15,1 C 89 % 1013,2 hPa 0,0 l/m 0,0 km/h (0 Bft) N 0 0 min 0,000 mm 0 W/m 13,3 C 15,1 C 0,0 km/h (0 Bft) 100 %
21.07.2017 05:10 14,8 C 14,8 C 15,1 C 89 % 1013,3 hPa 0,0 l/m 0,0 km/h (0 Bft) N 0 0 min 0,000 mm 0 W/m 13,0 C 14,8 C 0,0 km/h (0 Bft) 100 %
21.07.2017 05:20 14,9 C 14,8 C 14,9 C 89 % 1013,3 hPa 0,0 l/m 0,0 km/h (0 Bft) N 0 0 min 0,000 mm 0 W/m 13,1 C 14,9 C 0,0 km/h (0 Bft) 100 %
21.07.2017 05:30 15,0 C 14,9 C 15,1 C 89 % 1013,3 hPa 0,0 l/m 0,0 km/h (0 Bft) N 0 0 min 0,000 mm 0 W/m 13,2 C 15,0 C 0,0 km/h (0 Bft) 100 %
21.07.2017 05:40 15,1 C 15,0 C 15,1 C 89 % 1013,2 hPa 0,0 l/m 0,0 km/h (0 Bft) N 0 0 min 0,000 mm 0 W/m 13,3 C 15,1 C 0,0 km/h (0 Bft) 100 %
21.07.2017 05:50 15,0 C 14,9 C 15,1 C 89 % 1013,2 hPa 0,0 l/m 0,0 km/h (0 Bft) N 0 0 min 0,000 mm 5 W/m 13,2 C 15,0 C 0,0 km/h (0 Bft) 100 %
21.07.2017 06:00 14,9 C 14,9 C 14,9 C 89 % 1013,3 hPa 0,0 l/m 0,0 km/h (0 Bft) N 0 0 min 0,000 mm 9 W/m 13,1 C 14,9 C 0,0 km/h (0 Bft) 100 %
21.07.2017 06:10 14,8 C 14,8 C 14,9 C 89 % 1013,5 hPa 0,0 l/m 0,0 km/h (0 Bft) N 0 0 min 0,000 mm 14 W/m 13,0 C 14,8 C 0,0 km/h (0 Bft) 100 %
21.07.2017 06:20 14,7 C 14,7 C 14,8 C 89 % 1013,5 hPa 0,0 l/m 0,0 km/h (0 Bft) N 0 0 min 0,000 mm 19 W/m 12,9 C 14,7 C 0,0 km/h (0 Bft) 100 %
21.07.2017 06:30 14,7 C 14,6 C 14,7 C 89 % 1013,5 hPa 0,0 l/m 0,0 km/h (0 Bft) N 0 0 min 0,000 mm 30 W/m 12,9 C 14,7 C 0,0 km/h (0 Bft) 100 %
21.07.2017 06:40 14,7 C 14,6 C 14,7 C 89 % 1013,5 hPa 0,0 l/m 0,0 km/h (0 Bft) N 0 0 min 0,000 mm 33 W/m 12,9 C 14,7 C 0,0 km/h (0 Bft) 100 %
21.07.2017 06:50 14,8 C 14,7 C 14,8 C 90 % 1013,4 hPa 0,0 l/m 0,0 km/h (0 Bft) N 0 0 min 0,000 mm 39 W/m 13,2 C 14,8 C 0,0 km/h (0 Bft) 100 %
21.07.2017 07:00 14,9 C 14,8 C 14,9 C 90 % 1013,4 hPa 0,0 l/m 0,0 km/h (0 Bft) N 0 0 min 0,025 mm 54 W/m 13,3 C 14,9 C 0,0 km/h (0 Bft) 100 %
21.07.2017 07:10 15,1 C 14,9 C 15,1 C 89 % 1013,4 hPa 0,0 l/m 0,0 km/h (0 Bft) N 0 0 min 0,000 mm 60 W/m 13,3 C 15,1 C 0,0 km/h (0 Bft) 100 %
21.07.2017 07:20 15,1 C 15,1 C 15,1 C 89 % 1013,3 hPa 0,0 l/m 0,0 km/h (0 Bft) S-SO 157 0 min 0,000 mm 69 W/m 13,3 C 15,1 C 1,6 km/h (1 Bft) 100 %
21.07.2017 07:30 15,4 C 15,1 C 15,4 C 90 % 1013,3 hPa 0,0 l/m 0,0 km/h (0 Bft) S-SO 157 0 min 0,000 mm 72 W/m 13,8 C 15,4 C 3,2 km/h (1 Bft) 100 %
21.07.2017 07:40 15,6 C 15,4 C 15,6 C 90 % 1013,2 hPa 0,0 l/m 0,0 km/h (0 Bft) N 0 0 min 0,000 mm 79 W/m 14,0 C 15,6 C 0,0 km/h (0 Bft) 100 %
21.07.2017 07:50 15,8 C 15,6 C 15,8 C 90 % 1013,4 hPa 0,0 l/m 0,0 km/h (0 Bft) S-SO 157 0 min 0,000 mm 93 W/m 14,2 C 15,8 C 1,6 km/h (1 Bft) 100 %
21.07.2017 08:00 16,1 C 15,8 C 16,1 C 90 % 1013,5 hPa 0,0 l/m 0,0 km/h (0 Bft) N 0 0 min 0,025 mm 100 W/m 14,5 C 16,1 C 0,0 km/h (0 Bft) 100 %
21.07.2017 08:10 16,3 C 16,1 C 16,3 C 90 % 1013,5 hPa 0,0 l/m 0,0 km/h (0 Bft) N 0 0 min 0,000 mm 128 W/m 14,7 C 16,3 C 0,0 km/h (0 Bft) 100 %
21.07.2017 08:20 16,5 C 16,3 C 16,5 C 90 % 1013,5 hPa 0,0 l/m 0,0 km/h (0 Bft) N 0 0 min 0,000 mm 95 W/m 14,9 C 16,5 C 0,0 km/h (0 Bft) 100 %
21.07.2017 08:30 16,8 C 16,5 C 16,8 C 90 % 1013,5 hPa 0,0 l/m 0,0 km/h (0 Bft) N 0 10 min 0,000 mm 236 W/m 15,1 C 16,8 C 0,0 km/h (0 Bft) 100 %
21.07.2017 08:40 17,5 C 16,8 C 17,5 C 90 % 1013,5 hPa 0,0 l/m 0,0 km/h (0 Bft) N 0 10 min 0,000 mm 403 W/m 15,8 C 17,5 C 0,0 km/h (0 Bft) 100 %
21.07.2017 08:50 17,9 C 17,5 C 17,9 C 90 % 1013,7 hPa 0,0 l/m 0,0 km/h (0 Bft) N 0 10 min 0,000 mm 408 W/m 16,2 C 17,9 C 0,0 km/h (0 Bft) 100 %
21.07.2017 09:00 18,3 C 17,9 C 18,3 C 90 % 1013,8 hPa 0,0 l/m 0,0 km/h (0 Bft) N 0 10 min 0,127 mm 469 W/m 16,6 C 18,3 C 0,0 km/h (0 Bft) 100 %
21.07.2017 09:10 18,4 C 18,3 C 18,4 C 89 % 1013,8 hPa 0,0 l/m 0,0 km/h (0 Bft) N 0 10 min 0,000 mm 302 W/m 16,6 C 18,4 C 0,0 km/h (0 Bft) 100 %
21.07.2017 09:20 18,8 C 18,4 C 18,8 C 89 % 1013,7 hPa 0,0 l/m 0,0 km/h (0 Bft) N 0 10 min 0,000 mm 378 W/m 16,9 C 18,8 C 0,0 km/h (0 Bft) 100 %
21.07.2017 09:30 19,2 C 18,8 C 19,2 C 89 % 1013,8 hPa 0,0 l/m 0,0 km/h (0 Bft) S-SO 157 10 min 0,000 mm 234 W/m 17,3 C 19,2 C 4,8 km/h (1 Bft) 100 %
21.07.2017 09:50 20,1 C 18,8 C 20,1 C 89 % 1013,8 hPa 0,0 l/m 0,4 km/h (0 Bft) S-SO 159 20 min 0,001 mm 192 W/m 18,2 C 20,1 C 4,8 km/h (1 Bft) 92 %
21.07.2017 10:00 20,0 C 19,9 C 20,1 C 89 % 1013,6 hPa 0,0 l/m 0,8 km/h (0 Bft) S-SO 161 10 min 0,152 mm 204 W/m 18,1 C 20,0 C 4,8 km/h (1 Bft) 97 %
21.07.2017 10:10 20,0 C 20,0 C 20,1 C 88 % 1013,6 hPa 0,0 l/m 0,8 km/h (0 Bft) S-SO 165 10 min 0,000 mm 160 W/m 17,9 C 20,0 C 6,4 km/h (2 Bft) 97 %
21.07.2017 10:20 20,0 C 20,0 C 20,1 C 88 % 1013,6 hPa 0,0 l/m 0,2 km/h (0 Bft) S-SO 166 10 min 0,000 mm 183 W/m 17,9 C 20,0 C 3,2 km/h (1 Bft) 97 %
21.07.2017 10:30 20,0 C 20,0 C 20,0 C 88 % 1013,6 hPa 0,0 l/m 0,0 km/h (0 Bft) S-SO 166 10 min 0,000 mm 253 W/m 17,9 C 20,0 C 1,6 km/h (1 Bft) 97 %
21.07.2017 10:40 20,1 C 20,0 C 20,1 C 88 % 1013,7 hPa 0,0 l/m 0,0 km/h (0 Bft) S-SO 166 10 min 0,000 mm 276 W/m 18,0 C 20,1 C 0,0 km/h (0 Bft) 98 %
21.07.2017 10:50 20,3 C 20,1 C 20,3 C 86 % 1013,5 hPa 0,0 l/m 0,2 km/h (0 Bft) S-SO 158 10 min 0,000 mm 357 W/m 17,9 C 20,3 C 6,4 km/h (2 Bft) 97 %
21.07.2017 11:00 20,9 C 20,3 C 20,9 C 85 % 1013,6 hPa 0,0 l/m 0,0 km/h (0 Bft) S-SO 163 10 min 0,153 mm 403 W/m 18,3 C 20,9 C 0,0 km/h (0 Bft) 98 %
21.07.2017 11:10 21,3 C 20,9 C 21,3 C 79 % 1013,4 hPa 0,0 l/m 0,0 km/h (0 Bft) S-SO 161 10 min 0,000 mm 471 W/m 17,5 C 21,3 C 1,6 km/h (1 Bft) 97 %
21.07.2017 11:20 21,9 C 21,3 C 21,9 C 75 % 1013,4 hPa 0,0 l/m 0,0 km/h (0 Bft) S-SO 161 10 min 0,000 mm 482 W/m 17,3 C 21,9 C 0,0 km/h (0 Bft) 98 %
21.07.2017 11:30 22,5 C 21,9 C 22,5 C 69 % 1013,3 hPa 0,0 l/m 0,0 km/h (0 Bft) SO 134 10 min 0,000 mm 476 W/m 16,5 C 22,5 C 1,6 km/h (1 Bft) 97 %
21.07.2017 11:40 23,1 C 22,5 C 23,1 C 67 % 1013,2 hPa 0,0 l/m 0,2 km/h (0 Bft) S-SO 163 10 min 0,000 mm 812 W/m 16,6 C 23,1 C 3,2 km/h (1 Bft) 98 %
21.07.2017 11:50 23,8 C 23,1 C 23,8 C 68 % 1013,1 hPa 0,0 l/m 0,0 km/h (0 Bft) W-SW 255 10 min 0,000 mm 824 W/m 17,5 C 23,8 C 3,2 km/h (1 Bft) 97 %
21.07.2017 12:00 24,3 C 23,8 C 24,3 C 66 % 1013,0 hPa 0,0 l/m 0,0 km/h (0 Bft) W-NW 289 10 min 0,406 mm 819 W/m 17,5 C 24,3 C 1,6 km/h (1 Bft) 97 %
21.07.2017 12:10 24,7 C 24,3 C 24,7 C 68 % 1012,9 hPa 0,0 l/m 1,7 km/h (1 Bft) S-SO 165 10 min 0,000 mm 837 W/m 18,4 C 24,7 C 12,9 km/h (3 Bft) 97 %
21.07.2017 12:20 24,8 C 24,7 C 24,9 C 62 % 1012,8 hPa 0,0 l/m 1,8 km/h (1 Bft) SO 131 10 min 0,000 mm 853 W/m 17,0 C 24,8 C 9,7 km/h (2 Bft) 97 %
21.07.2017 12:30 24,9 C 24,8 C 24,9 C 62 % 1012,8 hPa 0,0 l/m 0,9 km/h (0 Bft) SO 134 10 min 0,000 mm 865 W/m 17,1 C 24,9 C 8,0 km/h (2 Bft) 98 %
21.07.2017 12:40 25,3 C 24,9 C 25,3 C 64 % 1012,8 hPa 0,0 l/m 1,6 km/h (1 Bft) S-SW 207 10 min 0,000 mm 937 W/m 18,0 C 25,3 C 9,7 km/h (2 Bft) 97 %
21.07.2017 12:50 25,5 C 25,3 C 25,6 C 63 % 1012,8 hPa 0,0 l/m 2,1 km/h (1 Bft) SO 142 10 min 0,000 mm 925 W/m 17,9 C 25,5 C 14,5 km/h (3 Bft) 98 %
21.07.2017 13:00 25,4 C 25,4 C 25,5 C 59 % 1012,6 hPa 0,0 l/m 4,6 km/h (1 Bft) SO 134 10 min 0,559 mm 896 W/m 16,8 C 25,4 C 12,9 km/h (3 Bft) 97 %
21.07.2017 13:10 25,3 C 25,3 C 25,4 C 63 % 1012,6 hPa 0,0 l/m 2,6 km/h (1 Bft) SO 138 10 min 0,000 mm 891 W/m 17,7 C 25,3 C 16,1 km/h (3 Bft) 97 %
21.07.2017 13:20 25,7 C 25,3 C 25,7 C 60 % 1012,3 hPa 0,0 l/m 0,3 km/h (0 Bft) NW 325 10 min 0,000 mm 882 W/m 17,3 C 25,7 C 8,0 km/h (2 Bft) 97 %
21.07.2017 13:30 26,1 C 25,7 C 26,1 C 59 % 1012,2 hPa 0,0 l/m 3,4 km/h (1 Bft) NW 320 10 min 0,000 mm 898 W/m 17,4 C 26,1 C 9,7 km/h (2 Bft) 97 %
21.07.2017 13:40 26,4 C 26,1 C 26,4 C 63 % 1012,1 hPa 0,0 l/m 3,3 km/h (1 Bft) W-NW 302 10 min 0,000 mm 888 W/m 18,8 C 26,4 C 9,7 km/h (2 Bft) 98 %
21.07.2017 13:50 26,7 C 26,4 C 26,7 C 57 % 1012,0 hPa 0,0 l/m 3,3 km/h (1 Bft) W-SW 255 10 min 0,000 mm 907 W/m 17,5 C 26,7 C 9,7 km/h (2 Bft) 98 %
21.07.2017 14:00 27,1 C 26,7 C 27,1 C 56 % 1011,8 hPa 0,0 l/m 2,2 km/h (1 Bft) N-NW 339 10 min 0,584 mm 914 W/m 17,5 C 27,1 C 11,3 km/h (2 Bft) 97 %
21.07.2017 14:10 27,4 C 27,1 C 27,4 C 58 % 1011,7 hPa 0,0 l/m 0,0 km/h (0 Bft) S-SO 153 10 min 0,000 mm 962 W/m 18,4 C 27,4 C 1,6 km/h (1 Bft) 97 %
21.07.2017 14:20 27,2 C 27,2 C 27,4 C 55 % 1011,8 hPa 0,0 l/m 2,1 km/h (1 Bft) SO 146 10 min 0,000 mm 893 W/m 17,4 C 27,2 C 11,3 km/h (2 Bft) 97 %
21.07.2017 14:30 27,1 C 27,1 C 27,2 C 59 % 1011,7 hPa 0,0 l/m 0,7 km/h (0 Bft) N-NW 339 10 min 0,000 mm 868 W/m 18,4 C 27,1 C 8,0 km/h (2 Bft) 97 %
21.07.2017 14:40 27,3 C 27,1 C 27,3 C 56 % 1011,6 hPa 0,0 l/m 0,9 km/h (0 Bft) SO 140 10 min 0,000 mm 190 W/m 17,7 C 27,3 C 9,7 km/h (2 Bft) 97 %
21.07.2017 14:50 26,7 C 26,6 C 27,3 C 58 % 1011,5 hPa 0,0 l/m 0,0 km/h (0 Bft) SO 141 10 min 0,000 mm 236 W/m 17,7 C 26,7 C 0,0 km/h (0 Bft) 98 %
21.07.2017 15:00 26,7 C 26,6 C 26,7 C 57 % 1011,4 hPa 0,0 l/m 0,0 km/h (0 Bft) S-SW 196 10 min 0,457 mm 766 W/m 17,5 C 26,7 C 1,6 km/h (1 Bft) 97 %
21.07.2017 15:10 27,2 C 26,7 C 27,2 C 54 % 1011,2 hPa 0,0 l/m 2,8 km/h (1 Bft) S-SO 162 10 min 0,000 mm 635 W/m 17,1 C 27,2 C 14,5 km/h (3 Bft) 97 %
21.07.2017 15:20 27,3 C 27,1 C 27,3 C 57 % 1011,2 hPa 0,0 l/m 1,0 km/h (0 Bft) W-SW 257 10 min 0,000 mm 274 W/m 18,0 C 27,3 C 9,7 km/h (2 Bft) 98 %
21.07.2017 15:30 27,6 C 27,3 C 27,6 C 57 % 1011,0 hPa 0,0 l/m 1,3 km/h (1 Bft) S 177 10 min 0,000 mm 267 W/m 18,3 C 27,6 C 9,7 km/h (2 Bft) 100 %
21.07.2017 15:40 27,8 C 27,6 C 27,8 C 57 % 1010,8 hPa 0,0 l/m 0,0 km/h (0 Bft) N-NO 17 10 min 0,000 mm 221 W/m 18,5 C 27,8 C 1,6 km/h (1 Bft) 99 %
21.07.2017 15:50 27,8 C 27,7 C 27,8 C 57 % 1010,7 hPa 0,0 l/m 0,3 km/h (0 Bft) SO 146 10 min 0,000 mm 281 W/m 18,5 C 27,8 C 8,0 km/h (2 Bft) 90 %
21.07.2017 16:00 27,5 C 27,5 C 27,8 C 57 % 1010,7 hPa 0,0 l/m 3,2 km/h (1 Bft) SO 128 10 min 0,254 mm 302 W/m 18,2 C 27,5 C 14,5 km/h (3 Bft) 99 %
21.07.2017 16:10 27,4 C 27,4 C 27,5 C 56 % 1010,6 hPa 0,0 l/m 0,0 km/h (0 Bft) SW 231 10 min 0,000 mm 526 W/m 17,8 C 27,4 C 0,0 km/h (0 Bft) 99 %
21.07.2017 16:20 27,7 C 27,4 C 27,7 C 55 % 1010,5 hPa 0,0 l/m 0,0 km/h (0 Bft) S-SW 194 10 min 0,000 mm 817 W/m 17,8 C 27,7 C 0,0 km/h (0 Bft) 100 %
21.07.2017 16:30 27,7 C 27,7 C 27,8 C 56 % 1010,4 hPa 0,0 l/m 0,4 km/h (0 Bft) O-NO 59 10 min 0,000 mm 200 W/m 18,1 C 27,7 C 8,0 km/h (2 Bft) 100 %
21.07.2017 16:40 27,3 C 27,3 C 27,7 C 57 % 1010,3 hPa 0,0 l/m 0,4 km/h (0 Bft) SO 134 10 min 0,000 mm 526 W/m 18,0 C 27,3 C 6,4 km/h (2 Bft) 100 %
21.07.2017 16:50 27,3 C 27,2 C 27,3 C 58 % 1010,1 hPa 0,0 l/m 1,3 km/h (1 Bft) O-SO 107 0 min 0,000 mm 93 W/m 18,3 C 27,3 C 8,0 km/h (2 Bft) 100 %
21.07.2017 17:00 27,3 C 27,2 C 27,3 C 58 % 1010,0 hPa 0,0 l/m 0,8 km/h (0 Bft) O-SO 115 0 min 0,203 mm 95 W/m 18,3 C 27,3 C 9,7 km/h (2 Bft) 100 %
21.07.2017 17:10 27,4 C 27,3 C 27,4 C 56 % 1009,8 hPa 0,0 l/m 3,3 km/h (1 Bft) O-SO 120 0 min 0,000 mm 100 W/m 17,8 C 27,4 C 17,7 km/h (3 Bft) 100 %
21.07.2017 17:20 27,4 C 27,3 C 27,5 C 56 % 1009,7 hPa 0,0 l/m 1,4 km/h (1 Bft) SO 138 0 min 0,000 mm 93 W/m 17,8 C 27,4 C 12,9 km/h (3 Bft) 100 %
21.07.2017 17:30 27,6 C 27,4 C 27,6 C 60 % 1009,6 hPa 0,0 l/m 0,0 km/h (0 Bft) O-SO 119 0 min 0,000 mm 69 W/m 19,1 C 27,6 C 1,6 km/h (1 Bft) 100 %
21.07.2017 17:40 27,5 C 27,5 C 27,6 C 59 % 1009,5 hPa 0,0 l/m 0,9 km/h (0 Bft) O-SO 122 0 min 0,000 mm 86 W/m 18,8 C 27,5 C 9,7 km/h (2 Bft) 100 %
21.07.2017 17:50 27,7 C 27,5 C 27,7 C 57 % 1009,3 hPa 0,0 l/m 0,2 km/h (0 Bft) S-SO 163 0 min 0,000 mm 132 W/m 18,4 C 27,7 C 6,4 km/h (2 Bft) 100 %
21.07.2017 18:00 27,8 C 27,7 C 27,8 C 58 % 1008,9 hPa 0,0 l/m 0,2 km/h (0 Bft) O 99 0 min 0,077 mm 91 W/m 18,8 C 27,8 C 8,0 km/h (2 Bft) 100 %
21.07.2017 18:10 27,8 C 27,8 C 27,9 C 58 % 1008,8 hPa 0,0 l/m 0,2 km/h (0 Bft) NO 44 0 min 0,000 mm 70 W/m 18,8 C 27,8 C 6,4 km/h (2 Bft) 100 %
21.07.2017 18:20 27,6 C 27,6 C 27,8 C 59 % 1008,7 hPa 0,0 l/m 0,0 km/h (0 Bft) N 355 0 min 0,000 mm 69 W/m 18,8 C 27,6 C 0,0 km/h (0 Bft) 100 %
21.07.2017 18:30 27,4 C 27,4 C 27,6 C 58 % 1008,6 hPa 0,0 l/m 0,0 km/h (0 Bft) W-NW 288 0 min 0,000 mm 63 W/m 18,4 C 27,4 C 4,8 km/h (1 Bft) 100 %
21.07.2017 18:40 27,2 C 27,2 C 27,4 C 58 % 1008,5 hPa 0,0 l/m 0,3 km/h (0 Bft) O-SO 113 0 min 0,000 mm 62 W/m 18,2 C 27,2 C 4,8 km/h (1 Bft) 100 %
21.07.2017 18:50 27,1 C 27,1 C 27,2 C 61 % 1008,6 hPa 0,0 l/m 0,0 km/h (0 Bft) O-SO 120 0 min 0,000 mm 63 W/m 18,9 C 27,1 C 1,6 km/h (1 Bft) 100 %
21.07.2017 19:00 27,0 C 27,0 C 27,1 C 62 % 1008,8 hPa 0,0 l/m 0,0 km/h (0 Bft) N 5 0 min 0,050 mm 65 W/m 19,1 C 27,0 C 1,6 km/h (1 Bft) 100 %
21.07.2017 19:10 26,9 C 26,9 C 27,0 C 60 % 1008,8 hPa 0,0 l/m 0,4 km/h (0 Bft) N-NW 346 0 min 0,000 mm 69 W/m 18,5 C 26,9 C 8,0 km/h (2 Bft) 100 %
21.07.2017 19:20 26,8 C 26,8 C 26,9 C 60 % 1008,7 hPa 0,0 l/m 0,0 km/h (0 Bft) NO 51 0 min 0,000 mm 86 W/m 18,4 C 26,8 C 1,6 km/h (1 Bft) 100 %
21.07.2017 19:30 26,7 C 26,7 C 26,8 C 63 % 1008,6 hPa 0,0 l/m 0,0 km/h (0 Bft) O-NO 75 0 min 0,000 mm 91 W/m 19,1 C 26,7 C 0,0 km/h (0 Bft) 100 %
21.07.2017 19:40 26,6 C 26,6 C 26,7 C 63 % 1008,4 hPa 0,0 l/m 0,0 km/h (0 Bft) NO 51 0 min 0,000 mm 93 W/m 19,0 C 26,6 C 1,6 km/h (1 Bft) 100 %
21.07.2017 19:50 26,5 C 26,5 C 26,6 C 63 % 1008,3 hPa 0,0 l/m 0,0 km/h (0 Bft) NO 51 0 min 0,000 mm 88 W/m 18,9 C 26,5 C 0,0 km/h (0 Bft) 99 %
21.07.2017 20:00 26,4 C 26,4 C 26,5 C 65 % 1008,4 hPa 0,0 l/m 0,0 km/h (0 Bft) NO 51 0 min 0,051 mm 67 W/m 19,3 C 26,4 C 0,0 km/h (0 Bft) 100 %
21.07.2017 20:10 26,1 C 26,1 C 26,4 C 66 % 1008,7 hPa 0,0 l/m 0,0 km/h (0 Bft) NO 51 0 min 0,000 mm 54 W/m 19,2 C 26,1 C 0,0 km/h (0 Bft) 100 %
21.07.2017 20:20 25,7 C 25,7 C 26,1 C 66 % 1008,8 hPa 0,0 l/m 0,0 km/h (0 Bft) NO 51 0 min 0,000 mm 37 W/m 18,9 C 25,7 C 0,0 km/h (0 Bft) 100 %
21.07.2017 20:30 25,4 C 25,4 C 25,7 C 68 % 1008,8 hPa 0,0 l/m 0,0 km/h (0 Bft) NO 51 0 min 0,000 mm 28 W/m 19,1 C 25,4 C 0,0 km/h (0 Bft) 100 %
21.07.2017 20:40 25,0 C 25,0 C 25,4 C 68 % 1008,6 hPa 0,0 l/m 0,0 km/h (0 Bft) NO 51 0 min 0,000 mm 18 W/m 18,7 C 25,0 C 0,0 km/h (0 Bft) 100 %
21.07.2017 20:50 24,6 C 24,6 C 25,0 C 70 % 1008,6 hPa 0,0 l/m 0,0 km/h (0 Bft) NO 51 0 min 0,000 mm 14 W/m 18,8 C 24,6 C 0,0 km/h (0 Bft) 100 %
21.07.2017 21:00 24,2 C 24,2 C 24,6 C 70 % 1008,7 hPa 0,0 l/m 0,0 km/h (0 Bft) NO 51 0 min 0,026 mm 14 W/m 18,4 C 24,2 C 0,0 km/h (0 Bft) 100 %
21.07.2017 21:10 23,8 C 23,8 C 24,2 C 70 % 1008,6 hPa 0,0 l/m 0,0 km/h (0 Bft) N 0 0 min 0,000 mm 14 W/m 18,0 C 23,8 C 0,0 km/h (0 Bft) 97 %
21.07.2017 21:20 23,4 C 23,4 C 23,8 C 72 % 1008,5 hPa 0,0 l/m 0,0 km/h (0 Bft) N 0 0 min 0,000 mm 7 W/m 18,1 C 23,4 C 0,0 km/h (0 Bft) 96 %
21.07.2017 21:30 23,2 C 23,2 C 23,4 C 73 % 1008,4 hPa 0,0 l/m 0,0 km/h (0 Bft) N 0 0 min 0,000 mm 0 W/m 18,1 C 23,2 C 0,0 km/h (0 Bft) 98 %
21.07.2017 21:40 22,9 C 22,9 C 23,2 C 74 % 1008,5 hPa 0,0 l/m 0,0 km/h (0 Bft) N 0 0 min 0,000 mm 0 W/m 18,0 C 22,9 C 0,0 km/h (0 Bft) 98 %
21.07.2017 21:50 22,7 C 22,7 C 22,9 C 74 % 1008,4 hPa 0,0 l/m 0,0 km/h (0 Bft) N 0 0 min 0,000 mm 0 W/m 17,8 C 22,7 C 0,0 km/h (0 Bft) 97 %
21.07.2017 22:00 22,6 C 22,6 C 22,7 C 73 % 1008,5 hPa 0,0 l/m 0,0 km/h (0 Bft) N 0 0 min 0,000 mm 0 W/m 17,5 C 22,6 C 0,0 km/h (0 Bft) 98 %
21.07.2017 22:10 22,6 C 22,6 C 22,6 C 74 % 1008,4 hPa 0,0 l/m 0,0 km/h (0 Bft) NO 45 0 min 0,000 mm 0 W/m 17,7 C 22,6 C 1,6 km/h (1 Bft) 97 %
21.07.2017 22:20 22,4 C 22,4 C 22,6 C 75 % 1008,3 hPa 0,0 l/m 1,6 km/h (1 Bft) N-NW 337 0 min 0,000 mm 0 W/m 17,7 C 22,4 C 6,4 km/h (2 Bft) 98 %
21.07.2017 22:30 22,0 C 22,0 C 22,4 C 78 % 1008,4 hPa 0,0 l/m 3,2 km/h (1 Bft) N 360 0 min 0,000 mm 0 W/m 18,0 C 22,0 C 16,1 km/h (3 Bft) 97 %
21.07.2017 22:40 21,7 C 21,7 C 22,0 C 81 % 1008,2 hPa 0,0 l/m 1,6 km/h (1 Bft) N 360 0 min 0,000 mm 0 W/m 18,3 C 21,7 C 9,7 km/h (2 Bft) 97 %
21.07.2017 22:50 21,3 C 21,3 C 21,6 C 83 % 1008,1 hPa 0,0 l/m 0,0 km/h (0 Bft) N 0 0 min 0,000 mm 0 W/m 18,3 C 21,3 C 0,0 km/h (0 Bft) 98 %
21.07.2017 23:00 21,1 C 21,1 C 21,3 C 84 % 1009,0 hPa 0,0 l/m 1,6 km/h (1 Bft) S-SW 202 0 min 0,025 mm 0 W/m 18,3 C 21,1 C 17,7 km/h (3 Bft) 96 %
21.07.2017 23:10 20,7 C 20,7 C 21,0 C 83 % 1009,5 hPa 0,0 l/m 17,7 km/h (3 Bft) W-SW 247 0 min 0,000 mm 0 W/m 17,7 C 17,5 C 38,6 km/h (5 Bft) 98 %
21.07.2017 23:20 20,1 C 20,1 C 20,7 C 83 % 1009,7 hPa 0,2 l/m 16,1 km/h (3 Bft) W 270 0 min 0,000 mm 0 W/m 17,1 C 17,1 C 33,8 km/h (5 Bft) 97 %
21.07.2017 23:30 19,2 C 19,2 C 20,1 C 85 % 1010,1 hPa 0,0 l/m 16,1 km/h (3 Bft) W 270 0 min 0,000 mm 0 W/m 16,6 C 16,0 C 33,8 km/h (5 Bft) 97 %
21.07.2017 23:40 18,6 C 18,6 C 19,2 C 86 % 1009,9 hPa 0,0 l/m 11,3 km/h (2 Bft) W-NW 292 0 min 0,000 mm 0 W/m 16,2 C 16,6 C 30,6 km/h (5 Bft) 97 %
21.07.2017 23:50 18,3 C 18,3 C 18,6 C 87 % 1010,2 hPa 0,0 l/m 8,0 km/h (2 Bft) NW 315 0 min 0,000 mm 0 W/m 16,1 C 17,6 C 19,3 km/h (3 Bft) 97 %
_ Min-Zeit 06:30 06:30 06:30 15:10 22:50 - 00:00 - - - - - 06:20 06:20 00:00 15:50
Minimum _ 14,6 C 14,6 C 14,7 C 54 % 1008,1 hPa - 0,0 km/h (0 Bft) - - - - - 12,9 C 14,7 C 0,0 km/h (0 Bft) 90 %
_ Max-Zeit 18:10 18:10 18:10 06:50 09:00 23:20 23:10 - - 09:50 14:00 14:10 20:00 15:40 23:10 00:00
Maximum _ 27,9 C 27,8 C 27,9 C 90 % 1013,8 hPa 0,2 l/m 17,7 km/h
W-SW (3 Bft)
- - 20 min 0,584 mm 962 W/m 19,3 C 27,8 C 38,6 km/h
S-SW (5 Bft)
100 %
Durchschnitt _ 21,3 C 21,2 C 21,4 C 76 % 1011,6 hPa #0,2 l/m 0,9 km/h (0 Bft) SO - #8:20 h #3,175 mm 320 W/m 16,6 C 21,3 C 4,4 km/h (1 Bft) 99 %
PRIVATE WETTERSTATION BILLIGHEIM-ALLFELD - www.neckar-odenwald-wetter.de - Holger Sonntag